sensor_id;sensor_type;location;lat;lon;timestamp;pressure;altitude;pressure_sealevel;temperature;humidity
17635;BME280;8936;49.010;12.120;2022-09-24T00:01:21;97731.38;;;13.73;100.00
17635;BME280;8936;49.010;12.120;2022-09-24T00:03:48;97734.88;;;13.74;100.00
17635;BME280;8936;49.010;12.120;2022-09-24T00:06:16;97728.16;;;13.71;100.00
17635;BME280;8936;49.010;12.120;2022-09-24T00:08:43;97736.50;;;13.70;100.00
17635;BME280;8936;49.010;12.120;2022-09-24T00:11:10;97734.63;;;13.70;100.00
17635;BME280;8936;49.010;12.120;2022-09-24T00:13:37;97736.63;;;13.60;100.00
17635;BME280;8936;49.010;12.120;2022-09-24T00:16:05;97733.72;;;13.56;100.00
17635;BME280;8936;49.010;12.120;2022-09-24T00:18:33;97728.47;;;13.46;100.00
17635;BME280;8936;49.010;12.120;2022-09-24T00:20:59;97730.63;;;13.44;100.00
17635;BME280;8936;49.010;12.120;2022-09-24T00:23:26;97729.78;;;13.48;100.00
17635;BME280;8936;49.010;12.120;2022-09-24T00:25:52;97736.16;;;13.52;100.00
17635;BME280;8936;49.010;12.120;2022-09-24T00:28:36;97738.00;;;13.57;100.00
17635;BME280;8936;49.010;12.120;2022-09-24T00:31:03;97734.81;;;13.55;100.00
17635;BME280;8936;49.010;12.120;2022-09-24T00:33:31;97725.66;;;13.56;100.00
17635;BME280;8936;49.010;12.120;2022-09-24T00:36:00;97726.38;;;13.43;100.00
17635;BME280;8936;49.010;12.120;2022-09-24T00:38:28;97718.06;;;13.16;100.00
17635;BME280;8936;49.010;12.120;2022-09-24T00:40:54;97732.84;;;13.13;100.00
17635;BME280;8936;49.010;12.120;2022-09-24T00:43:22;97726.56;;;13.23;100.00
17635;BME280;8936;49.010;12.120;2022-09-24T00:45:49;97725.66;;;13.32;100.00
17635;BME280;8936;49.010;12.120;2022-09-24T00:48:16;97721.84;;;13.38;100.00
17635;BME280;8936;49.010;12.120;2022-09-24T00:50:43;97721.78;;;13.43;100.00
17635;BME280;8936;49.010;12.120;2022-09-24T00:53:12;97726.31;;;13.48;100.00
17635;BME280;8936;49.010;12.120;2022-09-24T00:55:41;97727.94;;;13.44;100.00
17635;BME280;8936;49.010;12.120;2022-09-24T00:58:08;97717.94;;;13.49;100.00
17635;BME280;8936;49.010;12.120;2022-09-24T01:00:35;97713.69;;;13.48;100.00
17635;BME280;8936;49.010;12.120;2022-09-24T01:03:04;97704.19;;;13.56;100.00
17635;BME280;8936;49.010;12.120;2022-09-24T01:05:31;97709.56;;;13.56;100.00
17635;BME280;8936;49.010;12.120;2022-09-24T01:07:58;97704.53;;;13.49;100.00
17635;BME280;8936;49.010;12.120;2022-09-24T01:10:28;97698.75;;;13.42;100.00
17635;BME280;8936;49.010;12.120;2022-09-24T01:13:17;97705.69;;;13.43;100.00
17635;BME280;8936;49.010;12.120;2022-09-24T01:15:49;97693.63;;;13.46;100.00
17635;BME280;8936;49.010;12.120;2022-09-24T01:18:21;97700.88;;;13.40;100.00
17635;BME280;8936;49.010;12.120;2022-09-24T01:20:58;97694.38;;;13.46;100.00
17635;BME280;8936;49.010;12.120;2022-09-24T01:23:44;97698.44;;;13.44;100.00
17635;BME280;8936;49.010;12.120;2022-09-24T01:26:18;97695.66;;;13.54;100.00
17635;BME280;8936;49.010;12.120;2022-09-24T01:28:58;97698.41;;;13.49;100.00
17635;BME280;8936;49.010;12.120;2022-09-24T01:31:31;97694.69;;;13.45;100.00
17635;BME280;8936;49.010;12.120;2022-09-24T01:34:00;97700.28;;;13.48;100.00
17635;BME280;8936;49.010;12.120;2022-09-24T01:36:29;97695.25;;;13.42;100.00
17635;BME280;8936;49.010;12.120;2022-09-24T01:38:57;97697.47;;;13.35;100.00
17635;BME280;8936;49.010;12.120;2022-09-24T01:41:24;97697.00;;;13.28;100.00
17635;BME280;8936;49.010;12.120;2022-09-24T01:43:50;97697.53;;;13.30;100.00
17635;BME280;8936;49.010;12.120;2022-09-24T01:46:17;97698.56;;;13.34;100.00
17635;BME280;8936;49.010;12.120;2022-09-24T01:48:46;97689.16;;;13.36;100.00
17635;BME280;8936;49.010;12.120;2022-09-24T01:51:15;97687.81;;;13.34;100.00
17635;BME280;8936;49.010;12.120;2022-09-24T01:53:44;97689.16;;;13.36;100.00
17635;BME280;8936;49.010;12.120;2022-09-24T01:56:14;97683.22;;;13.39;100.00
17635;BME280;8936;49.010;12.120;2022-09-24T01:58:44;97674.97;;;13.31;100.00
17635;BME280;8936;49.010;12.120;2022-09-24T02:01:13;97670.91;;;13.15;100.00
17635;BME280;8936;49.010;12.120;2022-09-24T02:03:41;97673.63;;;13.10;100.00
17635;BME280;8936;49.010;12.120;2022-09-24T02:06:11;97661.44;;;12.93;100.00
17635;BME280;8936;49.010;12.120;2022-09-24T02:08:40;97656.63;;;12.90;100.00
17635;BME280;8936;49.010;12.120;2022-09-24T02:11:10;97649.94;;;12.93;100.00
17635;BME280;8936;49.010;12.120;2022-09-24T02:13:38;97648.50;;;13.00;100.00
17635;BME280;8936;49.010;12.120;2022-09-24T02:16:08;97648.72;;;13.04;100.00
17635;BME280;8936;49.010;12.120;2022-09-24T02:18:36;97643.63;;;12.79;100.00
17635;BME280;8936;49.010;12.120;2022-09-24T02:21:05;97646.94;;;12.66;100.00
17635;BME280;8936;49.010;12.120;2022-09-24T02:23:34;97641.19;;;12.82;100.00
17635;BME280;8936;49.010;12.120;2022-09-24T02:26:02;97641.19;;;12.82;100.00
17635;BME280;8936;49.010;12.120;2022-09-24T02:28:29;97623.06;;;12.69;100.00
17635;BME280;8936;49.010;12.120;2022-09-24T02:30:58;97626.53;;;12.75;100.00
17635;BME280;8936;49.010;12.120;2022-09-24T02:33:26;97627.22;;;12.85;100.00
17635;BME280;8936;49.010;12.120;2022-09-24T02:36:11;97631.66;;;12.95;100.00
17635;BME280;8936;49.010;12.120;2022-09-24T02:38:40;97634.59;;;12.98;100.00
17635;BME280;8936;49.010;12.120;2022-09-24T02:41:07;97624.13;;;12.97;100.00
17635;BME280;8936;49.010;12.120;2022-09-24T02:43:33;97621.50;;;12.92;100.00
17635;BME280;8936;49.010;12.120;2022-09-24T02:46:00;97614.94;;;12.79;100.00
17635;BME280;8936;49.010;12.120;2022-09-24T02:48:26;97611.75;;;12.77;100.00
17635;BME280;8936;49.010;12.120;2022-09-24T02:50:53;97615.41;;;12.86;100.00
17635;BME280;8936;49.010;12.120;2022-09-24T02:53:19;97606.81;;;12.89;100.00
17635;BME280;8936;49.010;12.120;2022-09-24T02:55:47;97609.59;;;12.79;100.00
17635;BME280;8936;49.010;12.120;2022-09-24T02:58:13;97607.53;;;12.71;100.00
17635;BME280;8936;49.010;12.120;2022-09-24T03:00:39;97600.56;;;12.70;100.00
17635;BME280;8936;49.010;12.120;2022-09-24T03:03:06;97590.84;;;12.79;100.00
17635;BME280;8936;49.010;12.120;2022-09-24T03:05:32;97603.19;;;12.75;100.00
17635;BME280;8936;49.010;12.120;2022-09-24T03:07:59;97601.28;;;12.81;100.00
17635;BME280;8936;49.010;12.120;2022-09-24T03:10:25;97605.19;;;12.88;100.00
17635;BME280;8936;49.010;12.120;2022-09-24T03:12:53;97588.28;;;12.93;100.00
17635;BME280;8936;49.010;12.120;2022-09-24T03:15:19;97603.78;;;12.96;100.00
17635;BME280;8936;49.010;12.120;2022-09-24T03:17:46;97600.00;;;12.97;100.00
17635;BME280;8936;49.010;12.120;2022-09-24T03:20:12;97605.94;;;12.94;100.00
17635;BME280;8936;49.010;12.120;2022-09-24T03:22:38;97600.34;;;12.90;100.00
17635;BME280;8936;49.010;12.120;2022-09-24T03:25:05;97610.78;;;12.92;100.00
17635;BME280;8936;49.010;12.120;2022-09-24T03:27:31;97606.28;;;12.87;100.00
17635;BME280;8936;49.010;12.120;2022-09-24T03:29:59;97612.16;;;12.89;100.00
17635;BME280;8936;49.010;12.120;2022-09-24T03:32:43;97613.31;;;12.83;100.00
17635;BME280;8936;49.010;12.120;2022-09-24T03:35:09;97614.88;;;12.84;100.00
17635;BME280;8936;49.010;12.120;2022-09-24T03:37:36;97607.88;;;12.88;100.00
17635;BME280;8936;49.010;12.120;2022-09-24T03:40:03;97606.84;;;12.84;100.00
17635;BME280;8936;49.010;12.120;2022-09-24T03:42:30;97598.69;;;12.71;100.00
17635;BME280;8936;49.010;12.120;2022-09-24T03:44:57;97596.19;;;12.56;100.00
17635;BME280;8936;49.010;12.120;2022-09-24T03:47:25;97594.56;;;12.55;100.00
17635;BME280;8936;49.010;12.120;2022-09-24T03:49:51;97600.41;;;12.62;100.00
17635;BME280;8936;49.010;12.120;2022-09-24T03:52:18;97602.19;;;12.71;100.00
17635;BME280;8936;49.010;12.120;2022-09-24T03:54:44;97601.53;;;12.79;100.00
17635;BME280;8936;49.010;12.120;2022-09-24T03:57:10;97600.19;;;12.82;100.00
17635;BME280;8936;49.010;12.120;2022-09-24T03:59:38;97591.56;;;12.85;100.00
17635;BME280;8936;49.010;12.120;2022-09-24T04:02:06;97593.50;;;12.79;100.00
17635;BME280;8936;49.010;12.120;2022-09-24T04:04:33;97595.38;;;12.79;100.00
17635;BME280;8936;49.010;12.120;2022-09-24T04:07:00;97594.00;;;12.58;100.00
17635;BME280;8936;49.010;12.120;2022-09-24T04:09:26;97594.47;;;12.36;100.00
17635;BME280;8936;49.010;12.120;2022-09-24T04:11:52;97598.94;;;12.45;100.00
17635;BME280;8936;49.010;12.120;2022-09-24T04:14:19;97595.06;;;12.57;100.00
17635;BME280;8936;49.010;12.120;2022-09-24T04:16:45;97598.47;;;12.67;100.00
17635;BME280;8936;49.010;12.120;2022-09-24T04:19:12;97605.66;;;12.72;100.00
17635;BME280;8936;49.010;12.120;2022-09-24T04:21:41;97596.34;;;12.64;100.00
17635;BME280;8936;49.010;12.120;2022-09-24T04:24:08;97588.50;;;12.44;100.00
17635;BME280;8936;49.010;12.120;2022-09-24T04:26:34;97588.22;;;12.45;100.00
17635;BME280;8936;49.010;12.120;2022-09-24T04:29:00;97586.53;;;12.55;100.00
17635;BME280;8936;49.010;12.120;2022-09-24T04:31:27;97590.50;;;12.62;100.00
17635;BME280;8936;49.010;12.120;2022-09-24T04:33:54;97594.97;;;12.67;100.00
17635;BME280;8936;49.010;12.120;2022-09-24T04:36:20;97594.97;;;12.67;100.00
17635;BME280;8936;49.010;12.120;2022-09-24T04:38:48;97590.56;;;12.23;100.00
17635;BME280;8936;49.010;12.120;2022-09-24T04:41:15;97591.44;;;12.14;100.00
17635;BME280;8936;49.010;12.120;2022-09-24T04:43:41;97591.25;;;12.05;100.00
17635;BME280;8936;49.010;12.120;2022-09-24T04:46:10;97587.78;;;12.05;100.00
17635;BME280;8936;49.010;12.120;2022-09-24T04:48:37;97590.44;;;11.66;100.00
17635;BME280;8936;49.010;12.120;2022-09-24T04:51:03;97589.53;;;11.85;100.00
17635;BME280;8936;49.010;12.120;2022-09-24T04:53:30;97585.97;;;12.00;100.00
17635;BME280;8936;49.010;12.120;2022-09-24T04:55:58;97584.28;;;11.65;100.00
17635;BME280;8936;49.010;12.120;2022-09-24T04:58:25;97572.00;;;11.64;100.00
17635;BME280;8936;49.010;12.120;2022-09-24T05:00:52;97567.41;;;11.75;100.00
17635;BME280;8936;49.010;12.120;2022-09-24T05:03:19;97567.44;;;11.65;100.00
17635;BME280;8936;49.010;12.120;2022-09-24T05:05:46;97562.94;;;11.55;100.00
17635;BME280;8936;49.010;12.120;2022-09-24T05:08:12;97570.63;;;11.67;100.00
17635;BME280;8936;49.010;12.120;2022-09-24T05:10:39;97571.59;;;11.91;100.00
17635;BME280;8936;49.010;12.120;2022-09-24T05:13:07;97568.53;;;12.03;100.00
17635;BME280;8936;49.010;12.120;2022-09-24T05:15:33;97561.66;;;11.91;100.00
17635;BME280;8936;49.010;12.120;2022-09-24T05:17:59;97572.53;;;12.05;100.00
17635;BME280;8936;49.010;12.120;2022-09-24T05:20:26;97572.22;;;12.12;100.00
17635;BME280;8936;49.010;12.120;2022-09-24T05:22:52;97567.16;;;12.05;100.00
17635;BME280;8936;49.010;12.120;2022-09-24T05:25:20;97579.16;;;12.13;100.00
17635;BME280;8936;49.010;12.120;2022-09-24T05:27:47;97581.59;;;12.09;100.00
17635;BME280;8936;49.010;12.120;2022-09-24T05:30:14;97580.66;;;12.24;100.00
17635;BME280;8936;49.010;12.120;2022-09-24T05:32:41;97575.78;;;12.31;100.00
17635;BME280;8936;49.010;12.120;2022-09-24T05:35:08;97587.00;;;12.33;100.00
17635;BME280;8936;49.010;12.120;2022-09-24T05:37:34;97579.69;;;12.15;100.00
17635;BME280;8936;49.010;12.120;2022-09-24T05:40:01;97573.41;;;11.96;100.00
17635;BME280;8936;49.010;12.120;2022-09-24T05:42:48;97566.34;;;11.71;100.00
17635;BME280;8936;49.010;12.120;2022-09-24T05:45:16;97575.69;;;11.78;100.00
17635;BME280;8936;49.010;12.120;2022-09-24T05:47:43;97582.75;;;11.98;100.00
17635;BME280;8936;49.010;12.120;2022-09-24T05:50:09;97567.47;;;12.04;100.00
17635;BME280;8936;49.010;12.120;2022-09-24T05:52:35;97566.34;;;12.10;100.00
17635;BME280;8936;49.010;12.120;2022-09-24T05:55:02;97564.31;;;11.97;100.00
17635;BME280;8936;49.010;12.120;2022-09-24T05:57:28;97571.72;;;12.05;100.00
17635;BME280;8936;49.010;12.120;2022-09-24T05:59:55;97556.75;;;12.04;100.00
17635;BME280;8936;49.010;12.120;2022-09-24T06:02:22;97561.00;;;12.05;100.00
17635;BME280;8936;49.010;12.120;2022-09-24T06:04:49;97554.66;;;11.96;100.00
17635;BME280;8936;49.010;12.120;2022-09-24T06:07:15;97570.47;;;11.97;100.00
17635;BME280;8936;49.010;12.120;2022-09-24T06:09:41;97567.09;;;11.81;100.00
17635;BME280;8936;49.010;12.120;2022-09-24T06:12:08;97574.47;;;11.95;100.00
17635;BME280;8936;49.010;12.120;2022-09-24T06:14:35;97574.38;;;12.10;100.00
17635;BME280;8936;49.010;12.120;2022-09-24T06:17:01;97577.56;;;12.12;100.00
17635;BME280;8936;49.010;12.120;2022-09-24T06:19:29;97574.56;;;12.18;100.00
17635;BME280;8936;49.010;12.120;2022-09-24T06:21:55;97579.25;;;11.98;100.00
17635;BME280;8936;49.010;12.120;2022-09-24T06:24:22;97576.59;;;11.98;100.00
17635;BME280;8936;49.010;12.120;2022-09-24T06:26:48;97580.47;;;11.81;100.00
17635;BME280;8936;49.010;12.120;2022-09-24T06:29:16;97572.50;;;11.71;100.00
17635;BME280;8936;49.010;12.120;2022-09-24T06:31:44;97570.09;;;11.70;100.00
17635;BME280;8936;49.010;12.120;2022-09-24T06:34:10;97574.91;;;11.68;100.00
17635;BME280;8936;49.010;12.120;2022-09-24T06:36:38;97572.50;;;11.71;100.00
17635;BME280;8936;49.010;12.120;2022-09-24T06:39:05;97565.00;;;11.68;100.00
17635;BME280;8936;49.010;12.120;2022-09-24T06:41:31;97565.56;;;11.70;100.00
17635;BME280;8936;49.010;12.120;2022-09-24T06:43:58;97560.94;;;11.81;100.00
17635;BME280;8936;49.010;12.120;2022-09-24T06:46:24;97556.47;;;11.71;100.00
17635;BME280;8936;49.010;12.120;2022-09-24T06:48:51;97571.16;;;11.74;100.00
17635;BME280;8936;49.010;12.120;2022-09-24T06:51:18;97563.16;;;11.69;100.00
17635;BME280;8936;49.010;12.120;2022-09-24T06:53:46;97574.22;;;11.52;100.00
17635;BME280;8936;49.010;12.120;2022-09-24T06:56:15;97572.03;;;11.59;100.00
17635;BME280;8936;49.010;12.120;2022-09-24T06:58:41;97566.59;;;11.74;100.00
17635;BME280;8936;49.010;12.120;2022-09-24T07:01:08;97573.88;;;12.03;100.00
17635;BME280;8936;49.010;12.120;2022-09-24T07:03:34;97575.59;;;12.22;100.00
17635;BME280;8936;49.010;12.120;2022-09-24T07:06:03;97566.66;;;12.32;100.00
17635;BME280;8936;49.010;12.120;2022-09-24T07:08:30;97564.94;;;12.46;100.00
17635;BME280;8936;49.010;12.120;2022-09-24T07:10:58;97566.94;;;12.59;100.00
17635;BME280;8936;49.010;12.120;2022-09-24T07:13:26;97574.22;;;12.54;100.00
17635;BME280;8936;49.010;12.120;2022-09-24T07:15:52;97578.78;;;12.53;100.00
17635;BME280;8936;49.010;12.120;2022-09-24T07:18:19;97569.00;;;12.38;100.00
17635;BME280;8936;49.010;12.120;2022-09-24T07:20:49;97568.31;;;12.28;100.00
17635;BME280;8936;49.010;12.120;2022-09-24T07:23:16;97574.13;;;12.06;100.00
17635;BME280;8936;49.010;12.120;2022-09-24T07:25:42;97580.38;;;11.97;100.00
17635;BME280;8936;49.010;12.120;2022-09-24T07:28:11;97578.88;;;11.80;100.00
17635;BME280;8936;49.010;12.120;2022-09-24T07:30:39;97583.41;;;11.85;100.00
17635;BME280;8936;49.010;12.120;2022-09-24T07:33:06;97576.06;;;11.96;100.00
17635;BME280;8936;49.010;12.120;2022-09-24T07:35:33;97578.38;;;12.07;100.00
17635;BME280;8936;49.010;12.120;2022-09-24T07:38:02;97588.66;;;11.95;100.00
17635;BME280;8936;49.010;12.120;2022-09-24T07:40:29;97593.06;;;11.81;100.00
17635;BME280;8936;49.010;12.120;2022-09-24T07:42:55;97595.97;;;11.84;100.00
17635;BME280;8936;49.010;12.120;2022-09-24T07:45:24;97593.66;;;12.07;100.00
17635;BME280;8936;49.010;12.120;2022-09-24T07:47:55;97595.00;;;12.04;100.00
17635;BME280;8936;49.010;12.120;2022-09-24T07:50:22;97598.16;;;12.11;100.00
17635;BME280;8936;49.010;12.120;2022-09-24T07:52:48;97598.53;;;12.33;100.00
17635;BME280;8936;49.010;12.120;2022-09-24T07:55:15;97593.44;;;12.32;100.00
17635;BME280;8936;49.010;12.120;2022-09-24T07:57:44;97603.94;;;12.28;100.00
17635;BME280;8936;49.010;12.120;2022-09-24T08:00:11;97592.38;;;12.33;100.00
17635;BME280;8936;49.010;12.120;2022-09-24T08:02:39;97595.53;;;12.35;100.00
17635;BME280;8936;49.010;12.120;2022-09-24T08:05:06;97600.84;;;12.11;100.00
17635;BME280;8936;49.010;12.120;2022-09-24T08:07:32;97596.94;;;11.99;100.00
17635;BME280;8936;49.010;12.120;2022-09-24T08:09:59;97584.31;;;12.04;100.00
17635;BME280;8936;49.010;12.120;2022-09-24T08:12:25;97593.63;;;12.12;100.00
17635;BME280;8936;49.010;12.120;2022-09-24T08:14:52;97593.88;;;12.10;100.00
17635;BME280;8936;49.010;12.120;2022-09-24T08:17:19;97595.69;;;12.20;100.00
17635;BME280;8936;49.010;12.120;2022-09-24T08:19:46;97606.63;;;12.23;100.00
17635;BME280;8936;49.010;12.120;2022-09-24T08:22:13;97602.44;;;12.46;100.00
17635;BME280;8936;49.010;12.120;2022-09-24T08:24:39;97611.94;;;12.57;100.00
17635;BME280;8936;49.010;12.120;2022-09-24T08:27:05;97608.19;;;12.58;100.00
17635;BME280;8936;49.010;12.120;2022-09-24T08:29:32;97610.50;;;12.70;100.00
17635;BME280;8936;49.010;12.120;2022-09-24T08:31:58;97609.13;;;12.72;100.00
17635;BME280;8936;49.010;12.120;2022-09-24T08:34:25;97613.47;;;12.68;100.00
17635;BME280;8936;49.010;12.120;2022-09-24T08:36:53;97610.78;;;12.68;100.00
17635;BME280;8936;49.010;12.120;2022-09-24T08:39:19;97602.75;;;12.68;100.00
17635;BME280;8936;49.010;12.120;2022-09-24T08:41:49;97594.72;;;12.39;100.00
17635;BME280;8936;49.010;12.120;2022-09-24T08:44:19;97607.16;;;12.25;100.00
17635;BME280;8936;49.010;12.120;2022-09-24T08:47:03;97611.19;;;12.23;100.00
17635;BME280;8936;49.010;12.120;2022-09-24T08:49:48;97604.25;;;12.22;100.00
17635;BME280;8936;49.010;12.120;2022-09-24T08:52:20;97606.88;;;12.27;100.00
17635;BME280;8936;49.010;12.120;2022-09-24T08:54:51;97605.81;;;12.28;100.00
17635;BME280;8936;49.010;12.120;2022-09-24T08:57:19;97605.19;;;12.36;100.00
17635;BME280;8936;49.010;12.120;2022-09-24T08:59:48;97604.91;;;12.37;100.00
17635;BME280;8936;49.010;12.120;2022-09-24T09:02:19;97603.78;;;12.43;100.00
17635;BME280;8936;49.010;12.120;2022-09-24T09:04:54;97598.13;;;12.45;100.00
17635;BME280;8936;49.010;12.120;2022-09-24T09:07:26;97600.22;;;12.53;100.00
17635;BME280;8936;49.010;12.120;2022-09-24T09:09:57;97605.47;;;12.63;100.00
17635;BME280;8936;49.010;12.120;2022-09-24T09:12:26;97608.47;;;12.57;100.00
17635;BME280;8936;49.010;12.120;2022-09-24T09:14:56;97605.69;;;12.67;100.00
17635;BME280;8936;49.010;12.120;2022-09-24T09:17:30;97604.66;;;12.63;100.00
17635;BME280;8936;49.010;12.120;2022-09-24T09:19:59;97611.06;;;12.67;100.00
17635;BME280;8936;49.010;12.120;2022-09-24T09:22:29;97622.75;;;12.76;100.00
17635;BME280;8936;49.010;12.120;2022-09-24T09:24:58;97620.47;;;12.88;100.00
17635;BME280;8936;49.010;12.120;2022-09-24T09:27:25;97610.47;;;12.98;100.00
17635;BME280;8936;49.010;12.120;2022-09-24T09:29:54;97611.97;;;13.10;100.00
17635;BME280;8936;49.010;12.120;2022-09-24T09:32:25;97612.19;;;13.13;100.00
17635;BME280;8936;49.010;12.120;2022-09-24T09:34:57;97607.22;;;13.25;100.00
17635;BME280;8936;49.010;12.120;2022-09-24T09:37:31;97606.06;;;13.31;100.00
17635;BME280;8936;49.010;12.120;2022-09-24T09:40:03;97610.13;;;13.29;100.00
17635;BME280;8936;49.010;12.120;2022-09-24T09:42:35;97602.97;;;13.43;100.00
17635;BME280;8936;49.010;12.120;2022-09-24T09:45:08;97615.25;;;13.49;100.00
17635;BME280;8936;49.010;12.120;2022-09-24T09:47:41;97603.19;;;13.46;100.00
17635;BME280;8936;49.010;12.120;2022-09-24T09:50:11;97603.41;;;13.50;100.00
17635;BME280;8936;49.010;12.120;2022-09-24T09:52:41;97596.50;;;13.44;100.00
17635;BME280;8936;49.010;12.120;2022-09-24T09:55:18;97594.28;;;13.51;100.00
17635;BME280;8936;49.010;12.120;2022-09-24T09:57:44;97602.47;;;13.60;100.00
17635;BME280;8936;49.010;12.120;2022-09-24T10:00:16;97596.31;;;13.59;100.00
17635;BME280;8936;49.010;12.120;2022-09-24T10:02:49;97609.28;;;13.52;100.00
17635;BME280;8936;49.010;12.120;2022-09-24T10:05:18;97602.25;;;13.56;100.00
17635;BME280;8936;49.010;12.120;2022-09-24T10:07:46;97607.47;;;13.66;100.00
17635;BME280;8936;49.010;12.120;2022-09-24T10:10:15;97604.94;;;13.75;100.00
17635;BME280;8936;49.010;12.120;2022-09-24T10:12:42;97609.44;;;13.79;100.00
17635;BME280;8936;49.010;12.120;2022-09-24T10:15:15;97599.00;;;13.78;100.00
17635;BME280;8936;49.010;12.120;2022-09-24T10:17:41;97596.03;;;13.79;100.00
17635;BME280;8936;49.010;12.120;2022-09-24T10:20:13;97599.06;;;13.91;100.00
17635;BME280;8936;49.010;12.120;2022-09-24T10:22:44;97593.69;;;13.91;100.00
17635;BME280;8936;49.010;12.120;2022-09-24T10:25:16;97591.28;;;13.90;100.00
17635;BME280;8936;49.010;12.120;2022-09-24T10:27:43;97598.38;;;13.99;100.00
17635;BME280;8936;49.010;12.120;2022-09-24T10:30:11;97601.38;;;13.98;100.00
17635;BME280;8936;49.010;12.120;2022-09-24T10:32:56;97600.72;;;14.06;100.00
17635;BME280;8936;49.010;12.120;2022-09-24T10:35:25;97602.19;;;13.98;100.00
17635;BME280;8936;49.010;12.120;2022-09-24T10:37:52;97610.59;;;13.92;100.00
17635;BME280;8936;49.010;12.120;2022-09-24T10:40:21;97606.22;;;13.96;100.00
17635;BME280;8936;49.010;12.120;2022-09-24T10:42:56;97605.44;;;13.95;100.00
17635;BME280;8936;49.010;12.120;2022-09-24T10:45:24;97616.25;;;13.90;100.00
17635;BME280;8936;49.010;12.120;2022-09-24T10:47:55;97621.94;;;13.89;100.00
17635;BME280;8936;49.010;12.120;2022-09-24T10:50:24;97607.25;;;14.00;100.00
17635;BME280;8936;49.010;12.120;2022-09-24T10:52:52;97614.50;;;13.99;100.00
17635;BME280;8936;49.010;12.120;2022-09-24T10:55:31;97616.09;;;14.00;100.00
17635;BME280;8936;49.010;12.120;2022-09-24T10:58:00;97618.88;;;13.95;100.00
17635;BME280;8936;49.010;12.120;2022-09-24T11:00:30;97611.91;;;13.94;100.00
17635;BME280;8936;49.010;12.120;2022-09-24T11:05:49;97610.28;;;14.12;100.00
17635;BME280;8936;49.010;12.120;2022-09-24T11:08:19;97608.31;;;14.18;100.00
17635;BME280;8936;49.010;12.120;2022-09-24T11:10:57;97610.34;;;14.26;100.00
17635;BME280;8936;49.010;12.120;2022-09-24T11:13:29;97607.13;;;14.24;100.00
17635;BME280;8936;49.010;12.120;2022-09-24T11:16:07;97605.94;;;14.16;100.00
17635;BME280;8936;49.010;12.120;2022-09-24T11:18:40;97614.19;;;14.38;100.00
17635;BME280;8936;49.010;12.120;2022-09-24T11:21:13;97611.84;;;14.32;100.00
17635;BME280;8936;49.010;12.120;2022-09-24T11:23:51;97611.19;;;14.40;100.00
17635;BME280;8936;49.010;12.120;2022-09-24T11:26:25;97598.69;;;14.49;100.00
17635;BME280;8936;49.010;12.120;2022-09-24T11:29:08;97597.97;;;14.43;100.00
17635;BME280;8936;49.010;12.120;2022-09-24T11:31:40;97597.06;;;14.34;100.00
17635;BME280;8936;49.010;12.120;2022-09-24T11:34:10;97599.06;;;14.24;100.00
17635;BME280;8936;49.010;12.120;2022-09-24T11:36:45;97599.06;;;14.24;100.00
17635;BME280;8936;49.010;12.120;2022-09-24T11:39:20;97593.69;;;14.24;100.00
17635;BME280;8936;49.010;12.120;2022-09-24T11:41:51;97599.38;;;14.22;100.00
17635;BME280;8936;49.010;12.120;2022-09-24T11:44:27;97599.66;;;14.21;100.00
17635;BME280;8936;49.010;12.120;2022-09-24T11:47:03;97599.47;;;14.17;100.00
17635;BME280;8936;49.010;12.120;2022-09-24T11:49:40;97596.31;;;14.29;100.00
17635;BME280;8936;49.010;12.120;2022-09-24T11:52:09;97598.88;;;14.39;100.00
17635;BME280;8936;49.010;12.120;2022-09-24T11:54:38;97598.78;;;14.44;100.00
17635;BME280;8936;49.010;12.120;2022-09-24T11:57:12;97598.88;;;14.39;100.00
17635;BME280;8936;49.010;12.120;2022-09-24T11:59:41;97601.16;;;14.27;100.00
17635;BME280;8936;49.010;12.120;2022-09-24T12:02:12;97603.38;;;14.25;100.00
17635;BME280;8936;49.010;12.120;2022-09-24T12:04:49;97593.63;;;14.29;100.00
17635;BME280;8936;49.010;12.120;2022-09-24T12:07:20;97598.34;;;14.37;100.00
17635;BME280;8936;49.010;12.120;2022-09-24T12:09:49;97594.28;;;14.39;100.00
17635;BME280;8936;49.010;12.120;2022-09-24T12:12:19;97592.78;;;14.33;100.00
17635;BME280;8936;49.010;12.120;2022-09-24T12:14:48;97590.22;;;14.42;100.00
17635;BME280;8936;49.010;12.120;2022-09-24T12:17:17;97585.66;;;14.24;100.00
17635;BME280;8936;49.010;12.120;2022-09-24T12:19:47;97580.06;;;14.39;100.00
17635;BME280;8936;49.010;12.120;2022-09-24T12:22:15;97578.97;;;14.40;100.00
17635;BME280;8936;49.010;12.120;2022-09-24T12:24:44;97585.78;;;14.51;100.00
17635;BME280;8936;49.010;12.120;2022-09-24T12:27:12;97587.72;;;14.45;100.00
17635;BME280;8936;49.010;12.120;2022-09-24T12:29:43;97582.78;;;14.52;100.00
17635;BME280;8936;49.010;12.120;2022-09-24T12:32:30;97585.88;;;14.59;100.00
17635;BME280;8936;49.010;12.120;2022-09-24T12:35:18;97577.59;;;14.56;100.00
17635;BME280;8936;49.010;12.120;2022-09-24T12:37:47;97580.72;;;14.63;100.00
17635;BME280;8936;49.010;12.120;2022-09-24T12:40:18;97578.91;;;14.58;100.00
17635;BME280;8936;49.010;12.120;2022-09-24T12:42:47;97576.31;;;14.53;100.00
17635;BME280;8936;49.010;12.120;2022-09-24T12:45:16;97577.81;;;14.59;100.00
17635;BME280;8936;49.010;12.120;2022-09-24T12:47:45;97566.38;;;14.54;100.00
17635;BME280;8936;49.010;12.120;2022-09-24T12:50:19;97564.16;;;14.56;100.00
17635;BME280;8936;49.010;12.120;2022-09-24T12:52:45;97563.09;;;14.71;100.00
17635;BME280;8936;49.010;12.120;2022-09-24T12:55:17;97563.69;;;14.54;100.00
17635;BME280;8936;49.010;12.120;2022-09-24T12:57:48;97565.66;;;14.62;100.00
17635;BME280;8936;49.010;12.120;2022-09-24T13:02:58;97571.06;;;14.76;100.00
17635;BME280;8936;49.010;12.120;2022-09-24T13:05:26;97564.19;;;14.83;100.00